createdAt,value
2023-02-19T00:01:07.923Z,101684.25
2023-02-19T00:03:34.872Z,101683.53
2023-02-19T00:06:02.750Z,101685.81
2023-02-19T00:08:31.403Z,101683.69
2023-02-19T00:11:13.535Z,101682.00
2023-02-19T00:13:42.184Z,101688.03
2023-02-19T00:16:19.506Z,101688.34
2023-02-19T00:18:46.216Z,101660.47
2023-02-19T00:21:13.646Z,101684.69
2023-02-19T00:23:40.286Z,101678.75
2023-02-19T00:26:18.093Z,101680.44
2023-02-19T00:28:45.637Z,101682.13
2023-02-19T00:31:32.521Z,101678.75
2023-02-19T00:34:05.013Z,101672.97
2023-02-19T00:36:33.250Z,101671.94
2023-02-19T00:38:59.600Z,101674.53
2023-02-19T00:41:26.089Z,101678.75
2023-02-19T00:43:55.269Z,101682.44
2023-02-19T00:46:27.886Z,101682.00
2023-02-19T00:48:55.146Z,101678.75
2023-02-19T00:51:23.882Z,101665.38
2023-02-19T00:53:50.517Z,101677.50
2023-02-19T00:56:17.334Z,101672.31
2023-02-19T00:58:43.734Z,101645.50
2023-02-19T01:01:11.092Z,101672.00
2023-02-19T01:03:38.507Z,101679.19
2023-02-19T01:06:06.081Z,101668.78
2023-02-19T01:08:33.399Z,101674.81
2023-02-19T01:11:00.758Z,101667.06
2023-02-19T01:13:28.306Z,101670.75
2023-02-19T01:16:02.340Z,101672.44
2023-02-19T01:18:28.721Z,101670.88
2023-02-19T01:20:55.081Z,101670.88
2023-02-19T01:23:21.481Z,101674.56
2023-02-19T01:25:47.829Z,101668.59
2023-02-19T01:28:14.199Z,101667.75
2023-02-19T01:30:40.769Z,101659.63
2023-02-19T01:33:08.903Z,101655.38
2023-02-19T01:35:39.157Z,101665.13
2023-02-19T01:38:07.378Z,101661.31
2023-02-19T01:40:34.208Z,101659.34
2023-02-19T01:43:00.585Z,101644.97
2023-02-19T01:45:30.949Z,101662.75
2023-02-19T01:48:09.130Z,101665.25
2023-02-19T01:50:44.013Z,101659.22
2023-02-19T01:53:14.451Z,101654.69
2023-02-19T01:55:41.102Z,101660.06
2023-02-19T01:58:09.106Z,101656.66
2023-02-19T02:00:36.436Z,101668.50
2023-02-19T02:03:03.961Z,101669.50
2023-02-19T02:05:46.292Z,101673.88
2023-02-19T02:08:33.918Z,101706.47
2023-02-19T02:11:00.804Z,101716.56
2023-02-19T02:13:27.332Z,101717.78
2023-02-19T02:16:19.748Z,101703.91
2023-02-19T02:19:08.727Z,101712.00
2023-02-19T02:21:59.001Z,101713.03
2023-02-19T02:24:51.583Z,101722.72
2023-02-19T02:28:01.823Z,101728.97
2023-02-19T02:30:50.372Z,101733.72
2023-02-19T02:33:28.844Z,101731.56
2023-02-19T02:36:00.939Z,101717.47
2023-02-19T02:38:30.998Z,101727.19
2023-02-19T02:40:57.777Z,101744.09
2023-02-19T02:43:24.459Z,101745.47
2023-02-19T02:45:50.944Z,101740.44
2023-02-19T02:48:23.751Z,101753.03
2023-02-19T02:50:59.614Z,101753.84
2023-02-19T02:53:47.899Z,101757.09
2023-02-19T02:56:16.585Z,101767.84
2023-02-19T02:58:44.353Z,101776.38
2023-02-19T03:02:10.919Z,101780.81
2023-02-19T03:05:03.265Z,101787.69
2023-02-19T03:07:37.089Z,101793.88
2023-02-19T03:10:07.777Z,101799.00
2023-02-19T03:12:57.532Z,101776.97
2023-02-19T03:15:55.820Z,101796.69
2023-02-19T03:18:43.491Z,101797.00
2023-02-19T03:21:10.311Z,101801.44
2023-02-19T03:23:56.477Z,101813.34
2023-02-19T03:26:25.408Z,101796.88
2023-02-19T03:29:12.052Z,101825.25
2023-02-19T03:31:41.812Z,101835.50
2023-02-19T03:34:12.655Z,101846.16
2023-02-19T03:36:53.859Z,101856.13
2023-02-19T03:39:22.808Z,101849.47
2023-02-19T03:41:54.965Z,101859.25
2023-02-19T03:44:33.082Z,101862.81
2023-02-19T03:47:13.561Z,101863.03
2023-02-19T03:49:51.618Z,101866.09
2023-02-19T03:52:49.751Z,101873.97
2023-02-19T03:55:43.460Z,101854.22
2023-02-19T03:58:18.169Z,101877.25
2023-02-19T04:00:53.262Z,101884.28
2023-02-19T04:03:33.581Z,101892.06
2023-02-19T04:06:05.460Z,101897.63
2023-02-19T04:08:35.840Z,101917.19
2023-02-19T04:11:03.780Z,101909.78
2023-02-19T04:13:40.761Z,101929.19
2023-02-19T04:16:11.637Z,101935.00
2023-02-19T04:18:41.001Z,101932.44
2023-02-19T04:21:09.045Z,101930.53
2023-02-19T04:23:42.997Z,101920.81
2023-02-19T04:26:11.787Z,101938.03
2023-02-19T04:28:38.893Z,101951.00
2023-02-19T04:31:06.377Z,101944.72
2023-02-19T04:33:32.753Z,101945.91
2023-02-19T04:35:59.101Z,101953.88
2023-02-19T04:38:25.516Z,101969.31
2023-02-19T04:40:51.949Z,101971.41
2023-02-19T04:43:18.899Z,101975.09
2023-02-19T04:45:45.314Z,101983.81
2023-02-19T04:48:11.769Z,101983.81
2023-02-19T04:50:41.233Z,101986.16
2023-02-19T04:53:08.260Z,101989.81
2023-02-19T04:55:40.704Z,102002.75
2023-02-19T04:58:07.082Z,102008.69
2023-02-19T05:00:34.067Z,102015.88
2023-02-19T05:03:01.012Z,102014.22
2023-02-19T05:05:27.711Z,102012.25
2023-02-19T05:07:54.314Z,102016.94
2023-02-19T05:10:20.691Z,102022.25
2023-02-19T05:12:47.040Z,102021.88
2023-02-19T05:15:13.432Z,102022.00
2023-02-19T05:17:39.824Z,102029.50
2023-02-19T05:20:07.078Z,102038.00
2023-02-19T05:22:33.445Z,102043.81
2023-02-19T05:24:59.800Z,102048.47
2023-02-19T05:27:26.219Z,102039.09
2023-02-19T05:29:52.673Z,102058.56
2023-02-19T05:32:19.008Z,102075.03
2023-02-19T05:34:45.352Z,102083.25
2023-02-19T05:37:11.744Z,102083.31
2023-02-19T05:39:38.101Z,102090.41
2023-02-19T05:42:04.516Z,102091.59
2023-02-19T05:44:30.894Z,102098.13
2023-02-19T05:46:57.257Z,102095.63
2023-02-19T05:49:23.625Z,102104.34
2023-02-19T05:51:51.029Z,102106.88
2023-02-19T05:54:17.389Z,102110.22
2023-02-19T05:56:43.814Z,102114.91
2023-02-19T05:59:22.228Z,102118.09
2023-02-19T06:01:50.260Z,102120.19
2023-02-19T06:04:19.051Z,102102.69
2023-02-19T06:06:46.444Z,102130.81
2023-02-19T06:09:13.307Z,102130.19
2023-02-19T06:11:40.078Z,102116.53
2023-02-19T06:14:07.151Z,102141.34
2023-02-19T06:16:34.388Z,102148.69
2023-02-19T06:19:04.035Z,102143.47
2023-02-19T06:21:30.397Z,102164.72
2023-02-19T06:23:56.838Z,102173.81
2023-02-19T06:26:24.684Z,102174.88
2023-02-19T06:28:53.161Z,102177.84
2023-02-19T06:31:21.246Z,102188.97
2023-02-19T06:33:48.118Z,102193.19
2023-02-19T06:36:17.191Z,102200.16
2023-02-19T06:38:44.093Z,102206.66
2023-02-19T06:41:12.020Z,102204.00
2023-02-19T06:43:38.770Z,102197.81
2023-02-19T06:46:06.673Z,102224.59
2023-02-19T06:48:34.187Z,102219.88
2023-02-19T06:51:00.809Z,102231.53
2023-02-19T06:53:27.494Z,102227.44
2023-02-19T06:56:22.311Z,102214.22
2023-02-19T06:58:48.673Z,102229.28
2023-02-19T07:01:15.040Z,102218.63
2023-02-19T07:03:41.477Z,102268.53
2023-02-19T07:06:08.231Z,102268.88
2023-02-19T07:08:34.632Z,102278.00
2023-02-19T07:11:01.004Z,102291.78
2023-02-19T07:13:27.756Z,102277.03
2023-02-19T07:16:02.101Z,102297.97
2023-02-19T07:18:30.086Z,102307.16
2023-02-19T07:21:12.363Z,102300.53
2023-02-19T07:23:39.558Z,102294.53
2023-02-19T07:26:09.943Z,102290.31
2023-02-19T07:28:36.366Z,102295.81
2023-02-19T07:31:04.291Z,102297.44
2023-02-19T07:33:30.855Z,102303.69
2023-02-19T07:35:57.354Z,102299.88
2023-02-19T07:38:25.027Z,102311.38
2023-02-19T07:40:56.540Z,102321.75
2023-02-19T07:43:24.341Z,102294.00
2023-02-19T07:45:50.991Z,102305.09
2023-02-19T07:48:18.144Z,102294.31
2023-02-19T07:50:54.628Z,102302.31
2023-02-19T07:53:22.713Z,102285.28
2023-02-19T07:55:49.704Z,102301.56
2023-02-19T07:58:16.583Z,102310.03
2023-02-19T08:00:43.242Z,102318.44
2023-02-19T08:03:10.214Z,102301.38
2023-02-19T08:05:38.840Z,102291.34
2023-02-19T08:08:10.359Z,102308.06
2023-02-19T08:10:55.639Z,102306.63
2023-02-19T08:13:22.881Z,102314.38
2023-02-19T08:15:50.715Z,102314.94
2023-02-19T08:18:18.925Z,102326.38
2023-02-19T08:20:45.640Z,102332.22
2023-02-19T08:23:12.380Z,102336.63
2023-02-19T08:25:40.005Z,102339.53
2023-02-19T08:28:08.294Z,102330.78
2023-02-19T08:30:35.909Z,102322.00
2023-02-19T08:33:02.568Z,102321.44
2023-02-19T08:35:29.185Z,102321.53
2023-02-19T08:37:57.330Z,102328.69
2023-02-19T08:40:24.955Z,102344.19
2023-02-19T08:42:51.475Z,102336.13
2023-02-19T08:45:18.838Z,102331.31
2023-02-19T08:47:45.780Z,102339.31
2023-02-19T08:50:12.812Z,102349.19
2023-02-19T08:52:39.169Z,102341.41
2023-02-19T08:55:06.008Z,102349.81
2023-02-19T08:57:35.924Z,102367.16
2023-02-19T09:00:02.276Z,102358.13
2023-02-19T09:02:29.156Z,102362.28
2023-02-19T09:04:55.497Z,102376.97
2023-02-19T09:07:22.915Z,102383.63
2023-02-19T09:09:49.330Z,102382.38
2023-02-19T09:12:15.704Z,102413.19
2023-02-19T09:14:42.158Z,102409.53
2023-02-19T09:17:08.946Z,102407.53
2023-02-19T09:19:35.871Z,102411.78
2023-02-19T09:22:03.474Z,102415.44
2023-02-19T09:24:30.670Z,102410.97
2023-02-19T09:26:57.068Z,102402.78
2023-02-19T09:29:28.069Z,102423.22
2023-02-19T09:31:59.184Z,102431.19
2023-02-19T09:34:27.242Z,102445.13
2023-02-19T09:36:54.701Z,102451.38
2023-02-19T09:39:21.346Z,102458.59
2023-02-19T09:41:52.275Z,102447.41
2023-02-19T09:44:29.489Z,102487.47
2023-02-19T09:46:56.328Z,102467.13
2023-02-19T09:49:33.714Z,102478.78
2023-02-19T09:52:07.704Z,102496.22
2023-02-19T09:54:36.388Z,102493.69
2023-02-19T09:57:04.198Z,102497.84
2023-02-19T09:59:42.195Z,102519.91
2023-02-19T10:02:18.241Z,102525.34
2023-02-19T10:04:46.364Z,102528.72
2023-02-19T10:07:22.830Z,102524.88
2023-02-19T10:09:59.398Z,102520.97
2023-02-19T10:12:28.864Z,102518.03
2023-02-19T10:15:09.102Z,102519.09
2023-02-19T10:17:36.812Z,102518.59
2023-02-19T10:20:04.349Z,102506.44
2023-02-19T10:22:36.359Z,102486.31
2023-02-19T10:25:02.904Z,102511.66
2023-02-19T10:27:31.117Z,102515.38
2023-02-19T10:29:59.825Z,102530.44
2023-02-19T10:32:27.462Z,102527.72
2023-02-19T10:35:10.942Z,102547.44
2023-02-19T10:37:44.225Z,102540.97
2023-02-19T10:40:20.843Z,102543.09
2023-02-19T10:42:49.873Z,102553.63
2023-02-19T10:45:41.380Z,102568.88
2023-02-19T10:48:24.694Z,102563.91
2023-02-19T10:50:57.045Z,102540.97
2023-02-19T10:53:39.670Z,102563.19
2023-02-19T10:56:12.555Z,102576.75
2023-02-19T10:58:40.185Z,102543.19
2023-02-19T11:01:32.896Z,102575.44
2023-02-19T11:04:18.147Z,102572.88
2023-02-19T11:06:45.876Z,102571.53
2023-02-19T11:09:30.846Z,102568.72
2023-02-19T11:11:57.956Z,102522.66
2023-02-19T11:14:26.459Z,102549.03
2023-02-19T11:16:58.590Z,102536.19
2023-02-19T11:19:37.983Z,102519.66
2023-02-19T11:22:32.269Z,102565.91
2023-02-19T11:25:25.658Z,102555.50
2023-02-19T11:28:07.885Z,102549.66
2023-02-19T11:30:41.102Z,102549.59
2023-02-19T11:33:22.196Z,102568.34
2023-02-19T11:35:51.133Z,102569.84
2023-02-19T11:38:19.541Z,102571.66
2023-02-19T11:40:59.872Z,102565.13
2023-02-19T11:43:52.660Z,102549.97
2023-02-19T11:46:49.934Z,102549.44
2023-02-19T11:49:51.421Z,102560.16
2023-02-19T11:52:54.118Z,102565.50
2023-02-19T11:55:44.236Z,102553.31
2023-02-19T11:58:29.994Z,102538.16
2023-02-19T12:01:18.918Z,102536.13
2023-02-19T12:04:10.284Z,102515.59
2023-02-19T12:07:10.280Z,102484.09
2023-02-19T12:10:14.241Z,102512.69
2023-02-19T12:12:59.353Z,102520.75
2023-02-19T12:15:48.653Z,102532.91
2023-02-19T12:18:50.147Z,102534.72
2023-02-19T12:21:38.893Z,102527.84
2023-02-19T12:24:25.397Z,102533.84
2023-02-19T12:27:10.891Z,102551.19
2023-02-19T12:29:45.176Z,102521.56
2023-02-19T12:32:25.682Z,102528.25
2023-02-19T12:35:16.633Z,102537.06
2023-02-19T12:38:13.694Z,102570.63
2023-02-19T12:40:56.641Z,102580.22
2023-02-19T12:43:24.192Z,102582.75
2023-02-19T12:46:01.323Z,102585.13
2023-02-19T12:48:39.807Z,102589.66
2023-02-19T12:51:21.196Z,102578.06
2023-02-19T12:53:58.951Z,102583.41
2023-02-19T12:56:30.832Z,102581.00
2023-02-19T12:59:05.449Z,102596.22
2023-02-19T13:01:41.568Z,102609.75
2023-02-19T13:04:23.275Z,102600.56
2023-02-19T13:06:56.403Z,102597.25
2023-02-19T13:09:36.442Z,102570.34
2023-02-19T13:12:09.679Z,102575.94
2023-02-19T13:14:44.608Z,102600.78
2023-02-19T13:17:34.287Z,102586.63
2023-02-19T13:20:20.218Z,102614.66
2023-02-19T13:23:11.139Z,102620.22
2023-02-19T13:26:10.716Z,102617.13
2023-02-19T13:28:53.421Z,102605.69
2023-02-19T13:31:31.989Z,102630.53
2023-02-19T13:34:07.225Z,102628.81
2023-02-19T13:36:36.124Z,102639.44
2023-02-19T13:39:06.434Z,102643.72
2023-02-19T13:41:42.523Z,102623.72
2023-02-19T13:44:20.942Z,102608.09
2023-02-19T13:46:49.433Z,102628.69
2023-02-19T13:49:27.699Z,102633.09
2023-02-19T13:51:59.067Z,102619.81
2023-02-19T13:54:25.865Z,102618.94
2023-02-19T13:57:20.087Z,102619.06
2023-02-19T13:59:48.129Z,102624.06
2023-02-19T14:02:21.654Z,102614.25
2023-02-19T14:05:01.847Z,102613.69
2023-02-19T14:07:28.164Z,102597.50
2023-02-19T14:09:55.014Z,102589.28
2023-02-19T14:12:22.814Z,102584.31
2023-02-19T14:14:53.668Z,102563.75
2023-02-19T14:17:25.484Z,102563.44
2023-02-19T14:20:04.999Z,102549.88
2023-02-19T14:22:47.570Z,102549.47
2023-02-19T14:25:28.968Z,102540.81
2023-02-19T14:28:10.512Z,102554.22
2023-02-19T14:30:46.018Z,102537.91
2023-02-19T14:33:16.433Z,102533.84
2023-02-19T14:35:46.230Z,102546.88
2023-02-19T14:38:30.409Z,102534.44
2023-02-19T14:40:57.590Z,102530.56
2023-02-19T14:43:26.304Z,102532.03
2023-02-19T14:45:57.075Z,102539.81
2023-02-19T14:48:45.943Z,102551.25
2023-02-19T14:51:21.111Z,102549.69
2023-02-19T14:53:48.751Z,102558.63
2023-02-19T14:56:25.647Z,102568.84
2023-02-19T14:59:20.660Z,102566.66
2023-02-19T15:01:53.806Z,102558.97
2023-02-19T15:04:23.301Z,102568.84
2023-02-19T15:06:52.950Z,102571.19
2023-02-19T15:09:21.716Z,102590.81
2023-02-19T15:11:48.621Z,102578.59
2023-02-19T15:14:20.990Z,102582.63
2023-02-19T15:16:47.923Z,102580.69
2023-02-19T15:19:16.414Z,102586.91
2023-02-19T15:21:47.467Z,102589.53
2023-02-19T15:24:16.731Z,102606.75
2023-02-19T15:26:46.956Z,102586.16
2023-02-19T15:29:16.013Z,102595.44
2023-02-19T15:31:51.695Z,102582.41
2023-02-19T15:34:21.800Z,102566.16
2023-02-19T15:36:51.572Z,102572.97
2023-02-19T15:39:24.208Z,102578.47
2023-02-19T15:41:58.494Z,102579.09
2023-02-19T15:44:31.687Z,102578.38
2023-02-19T15:47:04.133Z,102584.44
2023-02-19T15:49:46.391Z,102566.66
2023-02-19T15:52:30.507Z,102573.25
2023-02-19T15:54:59.929Z,102601.00
2023-02-19T15:57:32.652Z,102609.38
2023-02-19T16:00:07.208Z,102623.88
2023-02-19T16:02:34.273Z,102624.50
2023-02-19T16:05:02.195Z,102627.00
2023-02-19T16:07:34.764Z,102613.19
2023-02-19T16:10:20.238Z,102606.97
2023-02-19T16:13:00.591Z,102593.13
2023-02-19T16:15:29.122Z,102599.31
2023-02-19T16:17:56.782Z,102590.94
2023-02-19T16:20:28.967Z,102584.78
2023-02-19T16:23:12.728Z,102609.13
2023-02-19T16:25:43.962Z,102599.38
2023-02-19T16:28:20.930Z,102618.69
2023-02-19T16:31:15.569Z,102611.63
2023-02-19T16:33:44.010Z,102625.19
2023-02-19T16:36:41.451Z,102640.81
2023-02-19T16:39:07.815Z,102639.38
2023-02-19T16:41:57.460Z,102644.47
2023-02-19T16:44:33.383Z,102640.94
2023-02-19T16:47:14.167Z,102634.63
2023-02-19T16:49:42.425Z,102617.31
2023-02-19T16:52:14.182Z,102655.69
2023-02-19T16:54:40.617Z,102654.25
2023-02-19T16:57:06.961Z,102655.44
2023-02-19T16:59:33.326Z,102661.66
2023-02-19T17:01:59.870Z,102640.56
2023-02-19T17:04:26.254Z,102670.84
2023-02-19T17:06:52.633Z,102680.03
2023-02-19T17:09:19.026Z,102675.13
2023-02-19T17:11:45.426Z,102664.19
2023-02-19T17:14:11.797Z,102669.97
2023-02-19T17:16:41.102Z,102666.16
2023-02-19T17:19:17.047Z,102664.84
2023-02-19T17:21:45.152Z,102657.03
2023-02-19T17:24:11.583Z,102658.84
2023-02-19T17:26:38.107Z,102653.63
2023-02-19T17:29:06.777Z,102649.44
2023-02-19T17:31:34.057Z,102649.25
2023-02-19T17:34:00.712Z,102654.78
2023-02-19T17:36:30.796Z,102656.50
2023-02-19T17:39:01.658Z,102648.91
2023-02-19T17:41:28.722Z,102651.28
2023-02-19T17:43:55.570Z,102654.06
2023-02-19T17:46:24.801Z,102655.00
2023-02-19T17:48:51.567Z,102663.06
2023-02-19T17:51:18.046Z,102677.41
2023-02-19T17:53:46.379Z,102674.72
2023-02-19T17:56:18.975Z,102682.28
2023-02-19T17:58:45.653Z,102678.94
2023-02-19T18:01:12.312Z,102677.84
2023-02-19T18:03:38.915Z,102672.69
2023-02-19T18:06:05.550Z,102670.22
2023-02-19T18:08:31.934Z,102681.41
2023-02-19T18:10:58.316Z,102683.59
2023-02-19T18:13:24.746Z,102677.56
2023-02-19T18:15:51.096Z,102681.63
2023-02-19T18:18:17.467Z,102690.91
2023-02-19T18:20:44.082Z,102656.72
2023-02-19T18:23:10.471Z,102654.84
2023-02-19T18:25:36.836Z,102681.75
2023-02-19T18:28:03.342Z,102677.00
2023-02-19T18:30:30.131Z,102670.84
2023-02-19T18:32:57.773Z,102675.88
2023-02-19T18:35:24.133Z,102669.59
2023-02-19T18:37:52.576Z,102656.06
2023-02-19T18:40:25.282Z,102655.97
2023-02-19T18:42:51.919Z,102650.63
2023-02-19T18:45:18.507Z,102657.69
2023-02-19T18:47:49.421Z,102654.25
2023-02-19T18:50:17.734Z,102665.13
2023-02-19T18:52:45.331Z,102668.44
2023-02-19T18:55:12.025Z,102646.16
2023-02-19T18:57:38.485Z,102662.81
2023-02-19T19:00:07.139Z,102645.09
2023-02-19T19:02:47.046Z,102652.94
2023-02-19T19:05:18.437Z,102676.56
2023-02-19T19:07:44.836Z,102668.94
2023-02-19T19:10:11.378Z,102650.13
2023-02-19T19:12:37.764Z,102668.59
2023-02-19T19:15:04.479Z,102690.66
2023-02-19T19:17:30.913Z,102676.38
2023-02-19T19:19:57.265Z,102681.31
2023-02-19T19:22:25.079Z,102681.88
2023-02-19T19:24:51.527Z,102668.38
2023-02-19T19:27:20.041Z,102655.88
2023-02-19T19:29:47.313Z,102655.22
2023-02-19T19:32:14.175Z,102642.84
2023-02-19T19:34:42.704Z,102641.13
2023-02-19T19:37:09.567Z,102642.63
2023-02-19T19:39:36.753Z,102634.94
2023-02-19T19:42:03.597Z,102637.00
2023-02-19T19:44:30.096Z,102647.22
2023-02-19T19:46:56.516Z,102624.38
2023-02-19T19:49:23.443Z,102625.31
2023-02-19T19:51:49.865Z,102625.84
2023-02-19T19:54:16.369Z,102628.28
2023-02-19T19:56:45.422Z,102634.28
2023-02-19T19:59:16.620Z,102642.66
2023-02-19T20:01:51.285Z,102636.00
2023-02-19T20:04:18.950Z,102633.13
2023-02-19T20:06:45.411Z,102631.31
2023-02-19T20:09:11.910Z,102637.84
2023-02-19T20:11:49.728Z,102598.50
2023-02-19T20:14:17.326Z,102626.72
2023-02-19T20:16:44.831Z,102623.78
2023-02-19T20:19:11.378Z,102606.22
2023-02-19T20:21:37.799Z,102624.06
2023-02-19T20:24:04.455Z,102637.75
2023-02-19T20:26:31.755Z,102601.72
2023-02-19T20:28:58.843Z,102635.59
2023-02-19T20:31:25.627Z,102625.38
2023-02-19T20:33:52.143Z,102629.66
2023-02-19T20:36:20.043Z,102615.88
2023-02-19T20:38:48.541Z,102607.41
2023-02-19T20:41:14.969Z,102609.84
2023-02-19T20:43:41.316Z,102599.75
2023-02-19T20:46:07.823Z,102591.84
2023-02-19T20:48:34.259Z,102594.97
2023-02-19T20:51:00.704Z,102585.44
2023-02-19T20:53:27.692Z,102572.00
2023-02-19T20:55:55.259Z,102566.03
2023-02-19T20:58:22.207Z,102538.66
2023-02-19T21:00:48.636Z,102571.81
2023-02-19T21:03:15.439Z,102583.34
2023-02-19T21:05:42.899Z,102580.00
2023-02-19T21:08:11.580Z,102573.72
2023-02-19T21:10:38.160Z,102579.06
2023-02-19T21:13:04.534Z,102575.00
2023-02-19T21:15:30.918Z,102567.25
2023-02-19T21:17:57.380Z,102604.44
2023-02-19T21:20:23.730Z,102577.94
2023-02-19T21:22:50.098Z,102610.84
2023-02-19T21:25:16.544Z,102621.38
2023-02-19T21:27:42.876Z,102601.72
2023-02-19T21:30:09.484Z,102620.88
2023-02-19T21:32:35.911Z,102611.38
2023-02-19T21:35:02.401Z,102605.50
2023-02-19T21:37:28.814Z,102600.56
2023-02-19T21:39:55.580Z,102598.00
2023-02-19T21:42:21.972Z,102611.03
2023-02-19T21:44:48.372Z,102603.19
2023-02-19T21:47:14.776Z,102637.47
2023-02-19T21:49:42.276Z,102629.72
2023-02-19T21:52:09.544Z,102616.22
2023-02-19T21:54:35.917Z,102616.63
2023-02-19T21:57:03.414Z,102621.47
2023-02-19T21:59:29.786Z,102611.84
2023-02-19T22:01:57.086Z,102619.13
2023-02-19T22:04:24.568Z,102593.25
2023-02-19T22:06:54.955Z,102613.16
2023-02-19T22:09:21.384Z,102610.16
2023-02-19T22:11:47.745Z,102617.56
2023-02-19T22:14:14.291Z,102623.09
2023-02-19T22:16:40.683Z,102617.44
2023-02-19T22:19:07.071Z,102615.50
2023-02-19T22:21:33.524Z,102605.69
2023-02-19T22:24:01.640Z,102617.28
2023-02-19T22:26:33.863Z,102611.16
2023-02-19T22:29:02.666Z,102597.63
2023-02-19T22:31:29.138Z,102595.41
2023-02-19T22:33:57.532Z,102602.44
2023-02-19T22:36:26.744Z,102595.28
2023-02-19T22:38:53.985Z,102599.44
2023-02-19T22:41:21.039Z,102610.03
2023-02-19T22:43:48.006Z,102606.09
2023-02-19T22:46:18.268Z,102595.69
2023-02-19T22:48:44.782Z,102592.31
2023-02-19T22:51:13.164Z,102578.19
2023-02-19T22:53:47.675Z,102573.94
2023-02-19T22:56:15.296Z,102579.28
2023-02-19T22:58:42.161Z,102572.25
2023-02-19T23:01:10.108Z,102565.41
2023-02-19T23:03:54.697Z,102554.63
2023-02-19T23:06:24.660Z,102557.72
2023-02-19T23:08:52.193Z,102548.78
2023-02-19T23:11:30.471Z,102536.16
2023-02-19T23:13:57.734Z,102499.88
2023-02-19T23:16:24.227Z,102528.16
2023-02-19T23:18:51.269Z,102498.38
2023-02-19T23:21:21.696Z,102522.09
2023-02-19T23:23:48.244Z,102514.53
2023-02-19T23:26:16.420Z,102502.44
2023-02-19T23:28:43.260Z,102467.31
2023-02-19T23:31:10.333Z,102501.59
2023-02-19T23:33:36.949Z,102500.22
2023-02-19T23:36:04.365Z,102493.16
2023-02-19T23:38:30.797Z,102494.66
2023-02-19T23:40:57.205Z,102497.13
2023-02-19T23:43:23.573Z,102470.41
2023-02-19T23:45:50.182Z,102490.25
2023-02-19T23:48:16.716Z,102466.34
2023-02-19T23:50:43.096Z,102477.47
2023-02-19T23:53:09.604Z,102459.50
2023-02-19T23:55:35.968Z,102475.63
2023-02-19T23:58:02.352Z,102474.91
